sensor_id;sensor_type;location;lat;lon;timestamp;P1;durP1;ratioP1;P2;durP2;ratioP2
803;SDS011;25687;49.976;8.240;2024-01-11T00:01:38;32.93;;;16.97;;
803;SDS011;25687;49.976;8.240;2024-01-11T00:04:03;25.33;;;15.73;;
803;SDS011;25687;49.976;8.240;2024-01-11T00:06:28;32.20;;;16.37;;
803;SDS011;25687;49.976;8.240;2024-01-11T00:08:54;28.70;;;17.10;;
803;SDS011;25687;49.976;8.240;2024-01-11T00:11:19;30.27;;;16.53;;
803;SDS011;25687;49.976;8.240;2024-01-11T00:13:44;25.67;;;15.03;;
803;SDS011;25687;49.976;8.240;2024-01-11T00:16:09;28.77;;;15.70;;
803;SDS011;25687;49.976;8.240;2024-01-11T00:18:35;31.13;;;16.33;;
803;SDS011;25687;49.976;8.240;2024-01-11T00:21:00;33.60;;;16.63;;
803;SDS011;25687;49.976;8.240;2024-01-11T00:23:25;36.93;;;17.37;;
803;SDS011;25687;49.976;8.240;2024-01-11T00:25:51;31.33;;;15.40;;
803;SDS011;25687;49.976;8.240;2024-01-11T00:28:16;31.60;;;16.33;;
803;SDS011;25687;49.976;8.240;2024-01-11T00:30:41;27.83;;;15.63;;
803;SDS011;25687;49.976;8.240;2024-01-11T00:33:07;31.63;;;16.40;;
803;SDS011;25687;49.976;8.240;2024-01-11T00:35:32;24.87;;;14.67;;
803;SDS011;25687;49.976;8.240;2024-01-11T00:37:57;31.10;;;16.07;;
803;SDS011;25687;49.976;8.240;2024-01-11T00:40:22;34.13;;;15.43;;
803;SDS011;25687;49.976;8.240;2024-01-11T00:42:48;34.97;;;15.43;;
803;SDS011;25687;49.976;8.240;2024-01-11T00:45:13;33.93;;;15.87;;
803;SDS011;25687;49.976;8.240;2024-01-11T00:47:39;30.13;;;14.80;;
803;SDS011;25687;49.976;8.240;2024-01-11T00:50:04;29.97;;;15.50;;
803;SDS011;25687;49.976;8.240;2024-01-11T00:52:31;33.30;;;16.53;;
803;SDS011;25687;49.976;8.240;2024-01-11T00:54:56;30.07;;;15.27;;
803;SDS011;25687;49.976;8.240;2024-01-11T00:57:21;34.70;;;16.07;;
803;SDS011;25687;49.976;8.240;2024-01-11T00:59:47;35.40;;;15.57;;
803;SDS011;25687;49.976;8.240;2024-01-11T01:02:12;37.43;;;18.17;;
803;SDS011;25687;49.976;8.240;2024-01-11T01:04:38;37.03;;;16.60;;
803;SDS011;25687;49.976;8.240;2024-01-11T01:07:04;35.17;;;16.03;;
803;SDS011;25687;49.976;8.240;2024-01-11T01:09:29;28.93;;;15.40;;
803;SDS011;25687;49.976;8.240;2024-01-11T01:11:55;40.90;;;17.10;;
803;SDS011;25687;49.976;8.240;2024-01-11T01:14:20;32.17;;;15.30;;
803;SDS011;25687;49.976;8.240;2024-01-11T01:16:46;33.43;;;16.10;;
803;SDS011;25687;49.976;8.240;2024-01-11T01:19:11;30.23;;;15.00;;
803;SDS011;25687;49.976;8.240;2024-01-11T01:21:36;31.33;;;15.53;;
803;SDS011;25687;49.976;8.240;2024-01-11T01:24:02;26.20;;;15.13;;
803;SDS011;25687;49.976;8.240;2024-01-11T01:26:27;28.33;;;14.50;;
803;SDS011;25687;49.976;8.240;2024-01-11T01:28:52;36.27;;;15.67;;
803;SDS011;25687;49.976;8.240;2024-01-11T01:31:18;29.40;;;15.83;;
803;SDS011;25687;49.976;8.240;2024-01-11T01:33:43;30.10;;;16.10;;
803;SDS011;25687;49.976;8.240;2024-01-11T01:36:09;25.70;;;14.63;;
803;SDS011;25687;49.976;8.240;2024-01-11T01:38:35;31.37;;;14.87;;
803;SDS011;25687;49.976;8.240;2024-01-11T01:41:00;27.17;;;14.37;;
803;SDS011;25687;49.976;8.240;2024-01-11T01:43:26;27.73;;;14.93;;
803;SDS011;25687;49.976;8.240;2024-01-11T01:45:51;27.83;;;14.90;;
803;SDS011;25687;49.976;8.240;2024-01-11T01:48:16;30.00;;;14.20;;
803;SDS011;25687;49.976;8.240;2024-01-11T01:50:42;25.77;;;13.93;;
803;SDS011;25687;49.976;8.240;2024-01-11T01:53:10;27.20;;;14.70;;
803;SDS011;25687;49.976;8.240;2024-01-11T01:55:35;31.30;;;15.20;;
803;SDS011;25687;49.976;8.240;2024-01-11T01:58:01;32.40;;;15.40;;
803;SDS011;25687;49.976;8.240;2024-01-11T02:00:28;29.00;;;15.60;;
803;SDS011;25687;49.976;8.240;2024-01-11T02:02:54;27.57;;;16.07;;
803;SDS011;25687;49.976;8.240;2024-01-11T02:05:20;26.30;;;14.30;;
803;SDS011;25687;49.976;8.240;2024-01-11T02:07:45;25.57;;;14.37;;
803;SDS011;25687;49.976;8.240;2024-01-11T02:10:11;31.90;;;14.83;;
803;SDS011;25687;49.976;8.240;2024-01-11T02:12:37;28.03;;;15.23;;
803;SDS011;25687;49.976;8.240;2024-01-11T02:15:03;31.70;;;16.00;;
803;SDS011;25687;49.976;8.240;2024-01-11T02:17:29;27.33;;;13.97;;
803;SDS011;25687;49.976;8.240;2024-01-11T02:19:55;30.77;;;16.43;;
803;SDS011;25687;49.976;8.240;2024-01-11T02:22:25;26.60;;;14.57;;
803;SDS011;25687;49.976;8.240;2024-01-11T02:24:54;33.00;;;15.10;;
803;SDS011;25687;49.976;8.240;2024-01-11T02:27:21;28.33;;;15.23;;
803;SDS011;25687;49.976;8.240;2024-01-11T02:29:46;26.57;;;15.20;;
803;SDS011;25687;49.976;8.240;2024-01-11T02:32:11;29.00;;;14.77;;
803;SDS011;25687;49.976;8.240;2024-01-11T02:34:37;29.67;;;15.00;;
803;SDS011;25687;49.976;8.240;2024-01-11T02:37:02;25.83;;;14.37;;
803;SDS011;25687;49.976;8.240;2024-01-11T02:39:29;26.63;;;15.10;;
803;SDS011;25687;49.976;8.240;2024-01-11T02:41:55;25.97;;;14.50;;
803;SDS011;25687;49.976;8.240;2024-01-11T02:44:22;29.93;;;15.23;;
803;SDS011;25687;49.976;8.240;2024-01-11T02:46:48;28.67;;;14.63;;
803;SDS011;25687;49.976;8.240;2024-01-11T02:49:13;32.10;;;15.07;;
803;SDS011;25687;49.976;8.240;2024-01-11T02:51:38;28.17;;;14.57;;
803;SDS011;25687;49.976;8.240;2024-01-11T02:54:04;26.77;;;14.87;;
803;SDS011;25687;49.976;8.240;2024-01-11T02:56:29;28.87;;;15.53;;
803;SDS011;25687;49.976;8.240;2024-01-11T02:58:55;29.50;;;16.17;;
803;SDS011;25687;49.976;8.240;2024-01-11T03:01:20;25.87;;;13.77;;
803;SDS011;25687;49.976;8.240;2024-01-11T03:03:45;27.87;;;14.43;;
803;SDS011;25687;49.976;8.240;2024-01-11T03:06:11;25.10;;;14.27;;
803;SDS011;25687;49.976;8.240;2024-01-11T03:08:36;26.20;;;15.47;;
803;SDS011;25687;49.976;8.240;2024-01-11T03:11:01;26.63;;;15.77;;
803;SDS011;25687;49.976;8.240;2024-01-11T03:13:27;32.67;;;16.33;;
803;SDS011;25687;49.976;8.240;2024-01-11T03:15:52;28.40;;;15.90;;
803;SDS011;25687;49.976;8.240;2024-01-11T03:18:17;28.97;;;15.40;;
803;SDS011;25687;49.976;8.240;2024-01-11T03:20:43;37.50;;;15.73;;
803;SDS011;25687;49.976;8.240;2024-01-11T03:23:08;31.57;;;16.63;;
803;SDS011;25687;49.976;8.240;2024-01-11T03:25:33;29.57;;;15.97;;
803;SDS011;25687;49.976;8.240;2024-01-11T03:27:58;26.33;;;15.50;;
803;SDS011;25687;49.976;8.240;2024-01-11T03:30:24;29.60;;;15.10;;
803;SDS011;25687;49.976;8.240;2024-01-11T03:32:50;28.83;;;15.30;;
803;SDS011;25687;49.976;8.240;2024-01-11T03:35:15;30.90;;;16.00;;
803;SDS011;25687;49.976;8.240;2024-01-11T03:37:40;31.27;;;14.33;;
803;SDS011;25687;49.976;8.240;2024-01-11T03:40:06;32.47;;;16.03;;
803;SDS011;25687;49.976;8.240;2024-01-11T03:42:31;29.47;;;15.40;;
803;SDS011;25687;49.976;8.240;2024-01-11T03:44:57;29.90;;;16.57;;
803;SDS011;25687;49.976;8.240;2024-01-11T03:47:22;26.23;;;15.67;;
803;SDS011;25687;49.976;8.240;2024-01-11T03:49:47;29.03;;;15.37;;
803;SDS011;25687;49.976;8.240;2024-01-11T03:52:13;30.07;;;15.97;;
803;SDS011;25687;49.976;8.240;2024-01-11T03:54:38;31.37;;;17.10;;
803;SDS011;25687;49.976;8.240;2024-01-11T03:57:03;31.37;;;17.10;;
803;SDS011;25687;49.976;8.240;2024-01-11T03:59:29;35.23;;;17.20;;
803;SDS011;25687;49.976;8.240;2024-01-11T04:01:55;30.30;;;16.27;;
803;SDS011;25687;49.976;8.240;2024-01-11T04:04:21;32.53;;;16.37;;
803;SDS011;25687;49.976;8.240;2024-01-11T04:06:47;32.03;;;17.03;;
803;SDS011;25687;49.976;8.240;2024-01-11T04:09:13;31.57;;;16.67;;
803;SDS011;25687;49.976;8.240;2024-01-11T04:11:38;30.03;;;16.47;;
803;SDS011;25687;49.976;8.240;2024-01-11T04:14:03;32.67;;;17.30;;
803;SDS011;25687;49.976;8.240;2024-01-11T04:16:29;32.03;;;16.47;;
803;SDS011;25687;49.976;8.240;2024-01-11T04:18:54;30.67;;;16.27;;
803;SDS011;25687;49.976;8.240;2024-01-11T04:21:22;34.40;;;15.37;;
803;SDS011;25687;49.976;8.240;2024-01-11T04:23:49;34.33;;;17.20;;
803;SDS011;25687;49.976;8.240;2024-01-11T04:26:15;30.87;;;16.70;;
803;SDS011;25687;49.976;8.240;2024-01-11T04:28:40;31.97;;;16.83;;
803;SDS011;25687;49.976;8.240;2024-01-11T04:31:07;34.83;;;18.17;;
803;SDS011;25687;49.976;8.240;2024-01-11T04:33:33;29.13;;;16.83;;
803;SDS011;25687;49.976;8.240;2024-01-11T04:35:58;33.30;;;16.10;;
803;SDS011;25687;49.976;8.240;2024-01-11T04:38:23;31.13;;;16.53;;
803;SDS011;25687;49.976;8.240;2024-01-11T04:40:49;34.43;;;16.30;;
803;SDS011;25687;49.976;8.240;2024-01-11T04:43:14;28.30;;;16.73;;
803;SDS011;25687;49.976;8.240;2024-01-11T04:45:39;30.20;;;16.43;;
803;SDS011;25687;49.976;8.240;2024-01-11T04:48:05;29.40;;;16.27;;
803;SDS011;25687;49.976;8.240;2024-01-11T04:50:30;30.67;;;17.00;;
803;SDS011;25687;49.976;8.240;2024-01-11T04:52:56;32.23;;;17.23;;
803;SDS011;25687;49.976;8.240;2024-01-11T04:55:21;28.80;;;17.30;;
803;SDS011;25687;49.976;8.240;2024-01-11T04:57:46;31.60;;;16.07;;
803;SDS011;25687;49.976;8.240;2024-01-11T05:00:11;34.10;;;17.27;;
803;SDS011;25687;49.976;8.240;2024-01-11T05:02:37;33.90;;;16.83;;
803;SDS011;25687;49.976;8.240;2024-01-11T05:05:02;28.60;;;16.50;;
803;SDS011;25687;49.976;8.240;2024-01-11T05:07:28;32.60;;;17.53;;
803;SDS011;25687;49.976;8.240;2024-01-11T05:09:53;32.70;;;16.47;;
803;SDS011;25687;49.976;8.240;2024-01-11T05:12:19;31.60;;;16.93;;
803;SDS011;25687;49.976;8.240;2024-01-11T05:14:44;30.23;;;17.10;;
803;SDS011;25687;49.976;8.240;2024-01-11T05:17:09;31.30;;;16.73;;
803;SDS011;25687;49.976;8.240;2024-01-11T05:19:34;31.43;;;17.30;;
803;SDS011;25687;49.976;8.240;2024-01-11T05:22:00;30.30;;;16.17;;
803;SDS011;25687;49.976;8.240;2024-01-11T05:24:25;37.50;;;18.53;;
803;SDS011;25687;49.976;8.240;2024-01-11T05:26:50;27.37;;;16.87;;
803;SDS011;25687;49.976;8.240;2024-01-11T05:29:16;32.67;;;17.10;;
803;SDS011;25687;49.976;8.240;2024-01-11T05:31:41;33.23;;;16.53;;
803;SDS011;25687;49.976;8.240;2024-01-11T05:34:06;33.73;;;17.07;;
803;SDS011;25687;49.976;8.240;2024-01-11T05:36:32;28.00;;;15.13;;
803;SDS011;25687;49.976;8.240;2024-01-11T05:38:57;31.00;;;16.87;;
803;SDS011;25687;49.976;8.240;2024-01-11T05:41:22;33.53;;;16.67;;
803;SDS011;25687;49.976;8.240;2024-01-11T05:43:47;27.53;;;15.37;;
803;SDS011;25687;49.976;8.240;2024-01-11T05:46:13;27.70;;;15.90;;
803;SDS011;25687;49.976;8.240;2024-01-11T05:48:38;28.40;;;16.00;;
803;SDS011;25687;49.976;8.240;2024-01-11T05:51:03;30.47;;;15.97;;
803;SDS011;25687;49.976;8.240;2024-01-11T05:53:29;29.23;;;16.57;;
803;SDS011;25687;49.976;8.240;2024-01-11T05:55:54;35.53;;;16.10;;
803;SDS011;25687;49.976;8.240;2024-01-11T05:58:19;30.73;;;16.37;;
803;SDS011;25687;49.976;8.240;2024-01-11T06:00:45;36.73;;;18.97;;
803;SDS011;25687;49.976;8.240;2024-01-11T06:03:14;33.37;;;18.50;;
803;SDS011;25687;49.976;8.240;2024-01-11T06:05:40;30.03;;;17.07;;
803;SDS011;25687;49.976;8.240;2024-01-11T06:08:05;34.07;;;16.87;;
803;SDS011;25687;49.976;8.240;2024-01-11T06:10:30;28.13;;;15.37;;
803;SDS011;25687;49.976;8.240;2024-01-11T06:12:56;33.47;;;18.47;;
803;SDS011;25687;49.976;8.240;2024-01-11T06:15:21;36.53;;;18.37;;
803;SDS011;25687;49.976;8.240;2024-01-11T06:17:46;30.87;;;16.97;;
803;SDS011;25687;49.976;8.240;2024-01-11T06:20:12;29.57;;;15.97;;
803;SDS011;25687;49.976;8.240;2024-01-11T06:22:37;33.87;;;17.70;;
803;SDS011;25687;49.976;8.240;2024-01-11T06:25:03;32.50;;;17.33;;
803;SDS011;25687;49.976;8.240;2024-01-11T06:27:29;32.23;;;16.37;;
803;SDS011;25687;49.976;8.240;2024-01-11T06:29:54;33.17;;;16.53;;
803;SDS011;25687;49.976;8.240;2024-01-11T06:32:19;31.17;;;16.83;;
803;SDS011;25687;49.976;8.240;2024-01-11T06:34:44;31.63;;;17.50;;
803;SDS011;25687;49.976;8.240;2024-01-11T06:37:11;32.67;;;14.87;;
803;SDS011;25687;49.976;8.240;2024-01-11T06:39:36;31.97;;;18.67;;
803;SDS011;25687;49.976;8.240;2024-01-11T06:42:02;32.97;;;16.33;;
803;SDS011;25687;49.976;8.240;2024-01-11T06:44:27;36.30;;;17.40;;
803;SDS011;25687;49.976;8.240;2024-01-11T06:46:52;34.93;;;16.57;;
803;SDS011;25687;49.976;8.240;2024-01-11T06:49:18;33.73;;;17.10;;
803;SDS011;25687;49.976;8.240;2024-01-11T06:51:43;32.10;;;17.17;;
803;SDS011;25687;49.976;8.240;2024-01-11T06:54:08;34.27;;;16.67;;
803;SDS011;25687;49.976;8.240;2024-01-11T06:56:33;31.13;;;15.40;;
803;SDS011;25687;49.976;8.240;2024-01-11T06:58:59;27.40;;;15.73;;
803;SDS011;25687;49.976;8.240;2024-01-11T07:01:24;31.47;;;15.97;;
803;SDS011;25687;49.976;8.240;2024-01-11T07:03:50;29.57;;;15.90;;
803;SDS011;25687;49.976;8.240;2024-01-11T07:06:15;30.27;;;14.87;;
803;SDS011;25687;49.976;8.240;2024-01-11T07:08:41;30.90;;;16.23;;
803;SDS011;25687;49.976;8.240;2024-01-11T07:11:06;29.70;;;16.10;;
803;SDS011;25687;49.976;8.240;2024-01-11T07:13:32;28.10;;;15.87;;
803;SDS011;25687;49.976;8.240;2024-01-11T07:15:58;30.73;;;16.30;;
803;SDS011;25687;49.976;8.240;2024-01-11T07:18:24;34.37;;;17.13;;
803;SDS011;25687;49.976;8.240;2024-01-11T07:20:50;30.90;;;15.77;;
803;SDS011;25687;49.976;8.240;2024-01-11T07:23:16;37.27;;;18.23;;
803;SDS011;25687;49.976;8.240;2024-01-11T07:25:41;35.13;;;16.77;;
803;SDS011;25687;49.976;8.240;2024-01-11T07:28:07;27.97;;;16.43;;
803;SDS011;25687;49.976;8.240;2024-01-11T07:30:32;29.40;;;16.00;;
803;SDS011;25687;49.976;8.240;2024-01-11T07:32:58;28.23;;;16.10;;
803;SDS011;25687;49.976;8.240;2024-01-11T07:35:23;24.70;;;15.17;;
803;SDS011;25687;49.976;8.240;2024-01-11T07:37:48;32.63;;;17.73;;
803;SDS011;25687;49.976;8.240;2024-01-11T07:40:15;29.27;;;14.90;;
803;SDS011;25687;49.976;8.240;2024-01-11T07:42:41;26.50;;;16.30;;
803;SDS011;25687;49.976;8.240;2024-01-11T07:45:07;28.40;;;15.93;;
803;SDS011;25687;49.976;8.240;2024-01-11T07:47:35;29.47;;;17.20;;
803;SDS011;25687;49.976;8.240;2024-01-11T07:50:02;31.37;;;17.10;;
803;SDS011;25687;49.976;8.240;2024-01-11T07:52:28;31.47;;;15.60;;
803;SDS011;25687;49.976;8.240;2024-01-11T07:54:53;32.73;;;16.73;;
803;SDS011;25687;49.976;8.240;2024-01-11T07:57:19;33.73;;;17.57;;
803;SDS011;25687;49.976;8.240;2024-01-11T07:59:44;27.70;;;16.10;;
803;SDS011;25687;49.976;8.240;2024-01-11T08:02:09;29.53;;;16.97;;
803;SDS011;25687;49.976;8.240;2024-01-11T08:04:35;31.97;;;16.33;;
803;SDS011;25687;49.976;8.240;2024-01-11T08:07:00;24.50;;;15.30;;
803;SDS011;25687;49.976;8.240;2024-01-11T08:09:26;35.03;;;17.03;;
803;SDS011;25687;49.976;8.240;2024-01-11T08:11:52;35.93;;;18.57;;
803;SDS011;25687;49.976;8.240;2024-01-11T08:14:19;32.40;;;16.87;;
803;SDS011;25687;49.976;8.240;2024-01-11T08:16:44;35.57;;;17.63;;
803;SDS011;25687;49.976;8.240;2024-01-11T08:19:10;34.30;;;17.50;;
803;SDS011;25687;49.976;8.240;2024-01-11T08:21:35;31.67;;;16.73;;
803;SDS011;25687;49.976;8.240;2024-01-11T08:24:00;32.90;;;18.40;;
803;SDS011;25687;49.976;8.240;2024-01-11T08:26:27;35.77;;;17.77;;
803;SDS011;25687;49.976;8.240;2024-01-11T08:28:53;32.67;;;18.13;;
803;SDS011;25687;49.976;8.240;2024-01-11T08:31:18;34.77;;;18.03;;
803;SDS011;25687;49.976;8.240;2024-01-11T08:33:44;35.67;;;17.70;;
803;SDS011;25687;49.976;8.240;2024-01-11T08:36:09;34.23;;;18.97;;
803;SDS011;25687;49.976;8.240;2024-01-11T08:38:36;32.70;;;17.70;;
803;SDS011;25687;49.976;8.240;2024-01-11T08:41:01;29.80;;;18.13;;
803;SDS011;25687;49.976;8.240;2024-01-11T08:43:28;33.87;;;18.40;;
803;SDS011;25687;49.976;8.240;2024-01-11T08:45:54;37.70;;;19.33;;
803;SDS011;25687;49.976;8.240;2024-01-11T08:48:19;32.80;;;18.03;;
803;SDS011;25687;49.976;8.240;2024-01-11T08:50:44;40.33;;;18.63;;
803;SDS011;25687;49.976;8.240;2024-01-11T08:53:10;32.63;;;18.63;;
803;SDS011;25687;49.976;8.240;2024-01-11T08:55:35;36.90;;;19.27;;
803;SDS011;25687;49.976;8.240;2024-01-11T08:58:00;35.27;;;19.27;;
803;SDS011;25687;49.976;8.240;2024-01-11T09:00:26;38.93;;;19.60;;
803;SDS011;25687;49.976;8.240;2024-01-11T09:02:51;34.90;;;20.77;;
803;SDS011;25687;49.976;8.240;2024-01-11T09:05:17;47.93;;;25.40;;
803;SDS011;25687;49.976;8.240;2024-01-11T09:07:42;39.50;;;22.33;;
803;SDS011;25687;49.976;8.240;2024-01-11T09:10:07;40.23;;;23.73;;
803;SDS011;25687;49.976;8.240;2024-01-11T09:12:37;37.87;;;21.20;;
803;SDS011;25687;49.976;8.240;2024-01-11T09:15:02;43.00;;;24.97;;
803;SDS011;25687;49.976;8.240;2024-01-11T09:17:28;35.87;;;20.70;;
803;SDS011;25687;49.976;8.240;2024-01-11T09:19:53;35.90;;;19.90;;
803;SDS011;25687;49.976;8.240;2024-01-11T09:22:19;29.77;;;18.93;;
803;SDS011;25687;49.976;8.240;2024-01-11T09:24:44;30.80;;;20.60;;
803;SDS011;25687;49.976;8.240;2024-01-11T09:27:09;31.23;;;20.73;;
803;SDS011;25687;49.976;8.240;2024-01-11T09:29:35;29.87;;;21.40;;
803;SDS011;25687;49.976;8.240;2024-01-11T09:32:00;32.50;;;23.03;;
803;SDS011;25687;49.976;8.240;2024-01-11T09:34:26;29.03;;;21.77;;
803;SDS011;25687;49.976;8.240;2024-01-11T09:36:51;28.37;;;20.83;;
803;SDS011;25687;49.976;8.240;2024-01-11T09:39:17;30.50;;;22.87;;
803;SDS011;25687;49.976;8.240;2024-01-11T09:41:42;32.83;;;22.60;;
803;SDS011;25687;49.976;8.240;2024-01-11T09:44:17;28.27;;;21.53;;
803;SDS011;25687;49.976;8.240;2024-01-11T09:46:43;29.87;;;22.57;;
803;SDS011;25687;49.976;8.240;2024-01-11T09:49:08;30.03;;;22.23;;
803;SDS011;25687;49.976;8.240;2024-01-11T09:51:35;28.13;;;22.10;;
803;SDS011;25687;49.976;8.240;2024-01-11T09:54:04;29.90;;;22.33;;
803;SDS011;25687;49.976;8.240;2024-01-11T09:56:30;28.83;;;22.80;;
803;SDS011;25687;49.976;8.240;2024-01-11T09:58:56;27.17;;;22.60;;
803;SDS011;25687;49.976;8.240;2024-01-11T10:01:22;32.47;;;23.27;;
803;SDS011;25687;49.976;8.240;2024-01-11T10:03:49;29.97;;;23.60;;
803;SDS011;25687;49.976;8.240;2024-01-11T10:06:14;28.37;;;23.33;;
803;SDS011;25687;49.976;8.240;2024-01-11T10:08:40;29.60;;;23.23;;
803;SDS011;25687;49.976;8.240;2024-01-11T10:11:06;29.20;;;23.70;;
803;SDS011;25687;49.976;8.240;2024-01-11T10:13:31;27.93;;;23.20;;
803;SDS011;25687;49.976;8.240;2024-01-11T10:18:33;32.10;;;24.53;;
803;SDS011;25687;49.976;8.240;2024-01-11T10:20:58;33.97;;;24.47;;
803;SDS011;25687;49.976;8.240;2024-01-11T10:23:23;36.87;;;24.93;;
803;SDS011;25687;49.976;8.240;2024-01-11T10:25:49;36.50;;;24.30;;
803;SDS011;25687;49.976;8.240;2024-01-11T10:28:14;32.33;;;22.63;;
803;SDS011;25687;49.976;8.240;2024-01-11T10:30:40;38.90;;;23.93;;
803;SDS011;25687;49.976;8.240;2024-01-11T10:33:06;40.37;;;24.53;;
803;SDS011;25687;49.976;8.240;2024-01-11T10:35:32;36.07;;;23.30;;
803;SDS011;25687;49.976;8.240;2024-01-11T10:37:58;37.83;;;22.30;;
803;SDS011;25687;49.976;8.240;2024-01-11T10:40:28;38.27;;;22.13;;
803;SDS011;25687;49.976;8.240;2024-01-11T10:42:53;36.33;;;22.23;;
803;SDS011;25687;49.976;8.240;2024-01-11T10:45:24;39.93;;;22.37;;
803;SDS011;25687;49.976;8.240;2024-01-11T10:47:54;39.57;;;22.50;;
803;SDS011;25687;49.976;8.240;2024-01-11T10:50:22;37.30;;;22.93;;
803;SDS011;25687;49.976;8.240;2024-01-11T10:52:52;32.87;;;21.23;;
803;SDS011;25687;49.976;8.240;2024-01-11T10:55:24;35.33;;;20.17;;
803;SDS011;25687;49.976;8.240;2024-01-11T10:57:50;39.40;;;22.13;;
803;SDS011;25687;49.976;8.240;2024-01-11T11:00:16;37.97;;;21.70;;
803;SDS011;25687;49.976;8.240;2024-01-11T11:02:43;32.90;;;21.00;;
803;SDS011;25687;49.976;8.240;2024-01-11T11:05:11;43.33;;;26.00;;
803;SDS011;25687;49.976;8.240;2024-01-11T11:07:38;43.20;;;23.73;;
803;SDS011;25687;49.976;8.240;2024-01-11T11:10:04;36.90;;;22.07;;
803;SDS011;25687;49.976;8.240;2024-01-11T11:12:32;40.77;;;22.63;;
803;SDS011;25687;49.976;8.240;2024-01-11T11:14:59;51.53;;;26.20;;
803;SDS011;25687;49.976;8.240;2024-01-11T11:17:26;39.57;;;21.30;;
803;SDS011;25687;49.976;8.240;2024-01-11T11:19:52;37.47;;;22.40;;
803;SDS011;25687;49.976;8.240;2024-01-11T11:22:18;44.90;;;23.07;;
803;SDS011;25687;49.976;8.240;2024-01-11T11:24:44;40.83;;;22.67;;
803;SDS011;25687;49.976;8.240;2024-01-11T11:27:12;38.97;;;21.17;;
803;SDS011;25687;49.976;8.240;2024-01-11T11:29:38;39.60;;;21.07;;
803;SDS011;25687;49.976;8.240;2024-01-11T11:32:04;35.50;;;21.40;;
803;SDS011;25687;49.976;8.240;2024-01-11T11:34:41;30.97;;;19.07;;
803;SDS011;25687;49.976;8.240;2024-01-11T11:37:09;39.07;;;21.97;;
803;SDS011;25687;49.976;8.240;2024-01-11T11:39:36;39.67;;;20.63;;
803;SDS011;25687;49.976;8.240;2024-01-11T11:42:01;38.47;;;20.60;;
803;SDS011;25687;49.976;8.240;2024-01-11T11:44:27;35.47;;;20.43;;
803;SDS011;25687;49.976;8.240;2024-01-11T11:46:53;36.57;;;20.43;;
803;SDS011;25687;49.976;8.240;2024-01-11T11:49:19;33.73;;;19.77;;
803;SDS011;25687;49.976;8.240;2024-01-11T11:51:44;32.33;;;20.97;;
803;SDS011;25687;49.976;8.240;2024-01-11T11:54:09;31.37;;;20.57;;
803;SDS011;25687;49.976;8.240;2024-01-11T11:56:36;38.73;;;21.83;;
803;SDS011;25687;49.976;8.240;2024-01-11T11:59:01;40.53;;;21.77;;
803;SDS011;25687;49.976;8.240;2024-01-11T12:01:27;39.87;;;23.97;;
803;SDS011;25687;49.976;8.240;2024-01-11T12:03:53;35.43;;;21.27;;
803;SDS011;25687;49.976;8.240;2024-01-11T12:06:19;34.17;;;21.13;;
803;SDS011;25687;49.976;8.240;2024-01-11T12:08:47;32.73;;;20.27;;
803;SDS011;25687;49.976;8.240;2024-01-11T12:11:22;36.73;;;20.87;;
803;SDS011;25687;49.976;8.240;2024-01-11T12:13:49;38.27;;;22.60;;
803;SDS011;25687;49.976;8.240;2024-01-11T12:16:15;37.93;;;22.13;;
803;SDS011;25687;49.976;8.240;2024-01-11T12:18:40;41.30;;;22.63;;
803;SDS011;25687;49.976;8.240;2024-01-11T12:21:06;40.83;;;22.73;;
803;SDS011;25687;49.976;8.240;2024-01-11T12:23:35;39.97;;;22.83;;
803;SDS011;25687;49.976;8.240;2024-01-11T12:26:01;34.37;;;20.23;;
803;SDS011;25687;49.976;8.240;2024-01-11T12:28:30;36.67;;;23.60;;
803;SDS011;25687;49.976;8.240;2024-01-11T12:30:56;35.77;;;22.50;;
803;SDS011;25687;49.976;8.240;2024-01-11T12:33:21;37.93;;;22.57;;
803;SDS011;25687;49.976;8.240;2024-01-11T12:35:47;37.40;;;22.43;;
803;SDS011;25687;49.976;8.240;2024-01-11T12:38:12;32.53;;;20.43;;
803;SDS011;25687;49.976;8.240;2024-01-11T12:40:38;39.47;;;23.10;;
803;SDS011;25687;49.976;8.240;2024-01-11T12:43:04;40.57;;;22.93;;
803;SDS011;25687;49.976;8.240;2024-01-11T12:45:29;34.17;;;21.67;;
803;SDS011;25687;49.976;8.240;2024-01-11T12:47:57;38.33;;;19.50;;
803;SDS011;25687;49.976;8.240;2024-01-11T12:50:24;36.20;;;20.27;;
803;SDS011;25687;49.976;8.240;2024-01-11T12:53:06;34.00;;;21.53;;
803;SDS011;25687;49.976;8.240;2024-01-11T12:55:32;34.30;;;20.57;;
803;SDS011;25687;49.976;8.240;2024-01-11T12:58:08;32.83;;;19.40;;
803;SDS011;25687;49.976;8.240;2024-01-11T13:00:34;34.77;;;21.40;;
803;SDS011;25687;49.976;8.240;2024-01-11T13:03:01;32.73;;;20.87;;
803;SDS011;25687;49.976;8.240;2024-01-11T13:05:26;34.00;;;20.43;;
803;SDS011;25687;49.976;8.240;2024-01-11T13:07:51;36.60;;;21.90;;
803;SDS011;25687;49.976;8.240;2024-01-11T13:10:17;33.43;;;20.50;;
803;SDS011;25687;49.976;8.240;2024-01-11T13:12:42;36.50;;;22.07;;
803;SDS011;25687;49.976;8.240;2024-01-11T13:15:07;32.07;;;20.00;;
803;SDS011;25687;49.976;8.240;2024-01-11T13:17:33;34.17;;;21.30;;
803;SDS011;25687;49.976;8.240;2024-01-11T13:19:58;37.90;;;21.90;;
803;SDS011;25687;49.976;8.240;2024-01-11T13:22:24;36.47;;;21.67;;
803;SDS011;25687;49.976;8.240;2024-01-11T13:24:49;38.43;;;20.27;;
803;SDS011;25687;49.976;8.240;2024-01-11T13:27:15;41.27;;;23.03;;
803;SDS011;25687;49.976;8.240;2024-01-11T13:29:40;33.70;;;20.87;;
803;SDS011;25687;49.976;8.240;2024-01-11T13:32:05;38.20;;;21.67;;
803;SDS011;25687;49.976;8.240;2024-01-11T13:34:31;36.40;;;22.17;;
803;SDS011;25687;49.976;8.240;2024-01-11T13:36:56;32.27;;;21.27;;
803;SDS011;25687;49.976;8.240;2024-01-11T13:39:24;34.90;;;21.87;;
803;SDS011;25687;49.976;8.240;2024-01-11T13:41:50;34.67;;;21.17;;
803;SDS011;25687;49.976;8.240;2024-01-11T13:44:16;35.57;;;20.67;;
803;SDS011;25687;49.976;8.240;2024-01-11T13:46:41;35.50;;;21.90;;
803;SDS011;25687;49.976;8.240;2024-01-11T13:49:06;34.67;;;21.17;;
803;SDS011;25687;49.976;8.240;2024-01-11T13:51:31;35.97;;;20.27;;
803;SDS011;25687;49.976;8.240;2024-01-11T13:53:57;36.60;;;22.03;;
803;SDS011;25687;49.976;8.240;2024-01-11T13:56:24;39.63;;;21.73;;
803;SDS011;25687;49.976;8.240;2024-01-11T13:58:49;34.30;;;20.97;;
803;SDS011;25687;49.976;8.240;2024-01-11T14:01:14;39.13;;;21.30;;
803;SDS011;25687;49.976;8.240;2024-01-11T14:03:40;34.90;;;21.13;;
803;SDS011;25687;49.976;8.240;2024-01-11T14:06:05;39.00;;;22.27;;
803;SDS011;25687;49.976;8.240;2024-01-11T14:08:30;33.80;;;22.10;;
803;SDS011;25687;49.976;8.240;2024-01-11T14:10:56;31.87;;;21.70;;
803;SDS011;25687;49.976;8.240;2024-01-11T14:13:21;34.70;;;19.50;;
803;SDS011;25687;49.976;8.240;2024-01-11T14:15:46;34.17;;;21.80;;
803;SDS011;25687;49.976;8.240;2024-01-11T14:18:13;34.83;;;21.23;;
803;SDS011;25687;49.976;8.240;2024-01-11T14:20:38;35.43;;;21.70;;
803;SDS011;25687;49.976;8.240;2024-01-11T14:23:03;34.83;;;22.67;;
803;SDS011;25687;49.976;8.240;2024-01-11T14:25:29;37.27;;;23.33;;
803;SDS011;25687;49.976;8.240;2024-01-11T14:27:55;37.27;;;22.57;;
803;SDS011;25687;49.976;8.240;2024-01-11T14:30:21;36.87;;;21.47;;
803;SDS011;25687;49.976;8.240;2024-01-11T14:32:47;36.70;;;23.23;;
803;SDS011;25687;49.976;8.240;2024-01-11T14:35:13;36.70;;;22.47;;
803;SDS011;25687;49.976;8.240;2024-01-11T14:37:39;31.33;;;20.40;;
803;SDS011;25687;49.976;8.240;2024-01-11T14:40:05;32.43;;;21.57;;
803;SDS011;25687;49.976;8.240;2024-01-11T14:42:32;34.03;;;22.00;;